X  Lukk Metar værinformasjon om luftfart     LYNI Nis Airport
Temperatur
5°C Temperatur
2°C Duggpunkt
81% Luftfuktighet



Vind
3 M/S
6 MPT
10 KM/T
5 KNP



320°
NV
Nåværende forhold

For det meste Overskyet For det meste Overskyet
Trykk 1027.92 (hPa) - 30.35 (inHg)
Sikt 6.2 (mil) - 10 (km)
Flyplass
Flyplass-kode LYNI

Plassering: Nis Airport
Avstand: 63 (km)

Metar:
LYNI 271100Z 32005KT 280V020 9999 BKN017 OVC033 05/02 Q1028 NOSIG

Tid: 27-11-2022 12:00 CET